createdAt,value
2018-01-20T00:00:55.861Z,3.30
2018-01-20T00:03:25.054Z,3.30
2018-01-20T00:05:54.184Z,3.30
2018-01-20T00:08:24.108Z,3.30
2018-01-20T00:11:11.746Z,3.30
2018-01-20T00:13:41.391Z,3.30
2018-01-20T00:16:11.007Z,3.40
2018-01-20T00:18:41.253Z,3.30
2018-01-20T00:21:10.781Z,3.30
2018-01-20T00:23:40.287Z,3.30
2018-01-20T00:26:15.280Z,3.30
2018-01-20T00:28:44.462Z,3.30
2018-01-20T00:31:13.983Z,3.10
2018-01-20T00:33:43.350Z,3.20
2018-01-20T00:36:12.685Z,3.20
2018-01-20T00:38:42.661Z,3.10
2018-01-20T00:41:12.002Z,3.10
2018-01-20T00:43:41.224Z,3.10
2018-01-20T00:46:10.419Z,3.20
2018-01-20T00:48:40.541Z,3.40
2018-01-20T00:51:09.837Z,3.40
2018-01-20T00:53:39.857Z,3.50
2018-01-20T00:56:09.235Z,3.40
2018-01-20T00:58:38.456Z,3.30
2018-01-20T01:01:07.679Z,3.40
2018-01-20T01:03:36.945Z,3.40
2018-01-20T01:06:06.966Z,3.40
2018-01-20T01:08:37.163Z,3.40
2018-01-20T01:11:06.344Z,3.40
2018-01-20T01:13:37.093Z,3.20
2018-01-20T01:16:06.445Z,3.20
2018-01-20T01:18:35.677Z,3.20
2018-01-20T01:21:04.795Z,3.20
2018-01-20T01:23:34.168Z,3.20
2018-01-20T01:26:07.795Z,3.20
2018-01-20T01:28:37.398Z,3.30
2018-01-20T01:31:06.673Z,3.30
2018-01-20T01:33:35.867Z,3.30
2018-01-20T01:36:05.089Z,3.30
2018-01-20T01:38:34.464Z,3.30
2018-01-20T01:41:03.565Z,3.20
2018-01-20T01:43:32.737Z,3.30
2018-01-20T01:46:01.881Z,3.30
2018-01-20T01:48:30.991Z,3.30
2018-01-20T01:51:00.149Z,3.30
2018-01-20T01:53:29.254Z,3.30
2018-01-20T01:55:58.389Z,3.30
2018-01-20T01:58:29.430Z,3.30
2018-01-20T02:00:58.572Z,3.20
2018-01-20T02:03:30.897Z,3.30
2018-01-20T02:06:00.040Z,3.30
2018-01-20T02:08:29.257Z,3.20
2018-01-20T02:10:59.256Z,3.30
2018-01-20T02:13:28.372Z,3.30
2018-01-20T02:15:57.512Z,3.30
2018-01-20T02:18:27.832Z,3.30
2018-01-20T02:20:57.214Z,3.30
2018-01-20T02:23:26.377Z,3.30
2018-01-20T02:25:56.709Z,3.20
2018-01-20T02:28:26.596Z,3.30
2018-01-20T02:30:56.756Z,3.10
2018-01-20T02:33:25.928Z,3.10
2018-01-20T02:35:55.042Z,3.10
2018-01-20T02:38:29.761Z,3.20
2018-01-20T02:40:58.870Z,3.20
2018-01-20T02:43:27.981Z,3.20
2018-01-20T02:45:57.194Z,3.20
2018-01-20T02:48:26.319Z,3.20
2018-01-20T02:50:55.618Z,3.20
2018-01-20T02:53:24.745Z,3.20
2018-01-20T02:55:53.893Z,3.20
2018-01-20T02:58:23.829Z,3.10
2018-01-20T03:00:53.941Z,3.10
2018-01-20T03:03:23.068Z,3.00
2018-01-20T03:05:52.985Z,3.00
2018-01-20T03:08:22.909Z,3.00
2018-01-20T03:10:52.797Z,3.00
2018-01-20T03:13:21.954Z,3.10
2018-01-20T03:15:51.865Z,3.10
2018-01-20T03:18:20.982Z,3.10
2018-01-20T03:20:50.104Z,3.20
2018-01-20T03:23:20.062Z,3.20
2018-01-20T03:25:49.233Z,3.20
2018-01-20T03:28:19.146Z,3.10
2018-01-20T03:30:49.141Z,3.10
2018-01-20T03:33:18.960Z,3.10
2018-01-20T03:35:48.076Z,3.10
2018-01-20T03:38:17.481Z,3.10
2018-01-20T03:40:46.578Z,3.10
2018-01-20T03:43:15.688Z,3.10
2018-01-20T03:45:44.887Z,3.10
2018-01-20T03:48:14.068Z,3.10
2018-01-20T03:50:43.264Z,3.00
2018-01-20T03:53:13.279Z,3.10
2018-01-20T03:55:42.457Z,3.10
2018-01-20T03:58:11.655Z,3.10
2018-01-20T04:00:41.590Z,3.10
2018-01-20T04:03:10.770Z,3.10
2018-01-20T04:05:39.921Z,3.10
2018-01-20T04:08:09.293Z,3.00
2018-01-20T04:10:39.304Z,3.00
2018-01-20T04:13:08.598Z,3.00
2018-01-20T04:15:38.312Z,3.10
2018-01-20T04:18:07.505Z,3.10
2018-01-20T04:20:36.910Z,3.10
2018-01-20T04:23:06.361Z,3.10
2018-01-20T04:25:35.513Z,3.20
2018-01-20T04:28:04.633Z,3.10
2018-01-20T04:30:33.876Z,3.10
2018-01-20T04:33:03.033Z,3.10
2018-01-20T04:35:32.191Z,3.00
2018-01-20T04:38:01.381Z,3.00
2018-01-20T04:40:31.260Z,3.00
2018-01-20T04:43:00.463Z,3.00
2018-01-20T04:45:32.730Z,3.00
2018-01-20T04:48:01.873Z,2.90
2018-01-20T04:50:30.997Z,2.90
2018-01-20T04:53:00.168Z,2.90
2018-01-20T04:55:29.316Z,2.90
2018-01-20T04:57:58.533Z,2.80
2018-01-20T05:00:28.506Z,2.70
2018-01-20T05:02:57.664Z,2.70
2018-01-20T05:05:26.820Z,2.70
2018-01-20T05:07:55.973Z,2.80
2018-01-20T05:10:25.089Z,2.90
2018-01-20T05:12:54.206Z,2.90
2018-01-20T05:15:23.349Z,2.90
2018-01-20T05:17:52.447Z,2.80
2018-01-20T05:20:21.581Z,2.90
2018-01-20T05:22:50.727Z,2.80
2018-01-20T05:25:19.879Z,2.90
2018-01-20T05:27:49.207Z,2.80
2018-01-20T05:30:18.483Z,2.80
2018-01-20T05:32:47.856Z,2.80
2018-01-20T05:35:17.096Z,2.80
2018-01-20T05:37:46.320Z,2.80
2018-01-20T05:40:15.516Z,2.90
2018-01-20T05:42:44.669Z,2.90
2018-01-20T05:45:13.921Z,2.80
2018-01-20T05:47:43.889Z,2.80
2018-01-20T05:50:13.856Z,2.80
2018-01-20T05:52:43.156Z,2.90
2018-01-20T05:55:12.358Z,2.70
2018-01-20T05:57:41.577Z,2.70
2018-01-20T06:00:11.152Z,2.70
2018-01-20T06:02:41.161Z,2.80
2018-01-20T06:05:10.390Z,2.80
2018-01-20T06:07:40.479Z,2.70
2018-01-20T06:10:09.700Z,2.70
2018-01-20T06:12:39.382Z,2.70
2018-01-20T06:15:09.676Z,2.80
2018-01-20T06:17:39.035Z,2.80
2018-01-20T06:20:08.307Z,2.90
2018-01-20T06:22:37.579Z,2.80
2018-01-20T06:25:07.728Z,2.90
2018-01-20T06:27:36.930Z,2.90
2018-01-20T06:30:06.121Z,2.90
2018-01-20T06:32:35.252Z,2.90
2018-01-20T06:35:08.714Z,2.90
2018-01-20T06:37:37.913Z,2.90
2018-01-20T06:40:07.077Z,2.80
2018-01-20T06:42:36.310Z,2.80
2018-01-20T06:45:05.500Z,2.80
2018-01-20T06:47:34.658Z,2.80
2018-01-20T06:50:03.869Z,2.80
2018-01-20T06:52:33.127Z,2.80
2018-01-20T06:55:02.266Z,2.80
2018-01-20T06:57:31.742Z,2.80
2018-01-20T07:00:00.907Z,2.80
2018-01-20T07:02:30.143Z,2.90
2018-01-20T07:04:59.389Z,2.90
2018-01-20T07:07:28.535Z,2.90
2018-01-20T07:09:57.906Z,2.90
2018-01-20T07:12:27.132Z,2.80
2018-01-20T07:14:56.290Z,2.80
2018-01-20T07:17:25.512Z,2.80
2018-01-20T07:19:54.660Z,2.80
2018-01-20T07:22:24.533Z,2.70
2018-01-20T07:24:54.703Z,2.60
2018-01-20T07:27:27.078Z,2.60
2018-01-20T07:30:04.359Z,2.50
2018-01-20T07:32:33.677Z,2.50
2018-01-20T07:35:02.878Z,2.50
2018-01-20T07:37:32.002Z,2.50
2018-01-20T07:40:07.605Z,2.50
2018-01-20T07:42:37.620Z,2.40
2018-01-20T07:45:07.332Z,2.40
2018-01-20T07:47:37.981Z,2.40
2018-01-20T07:50:07.178Z,2.40
2018-01-20T07:52:36.381Z,2.40
2018-01-20T07:55:05.577Z,2.40
2018-01-20T07:57:35.512Z,2.60
2018-01-20T08:00:05.456Z,2.60
2018-01-20T08:02:34.626Z,2.60
2018-01-20T08:05:03.830Z,2.60
2018-01-20T08:07:33.017Z,2.70
2018-01-20T08:10:02.205Z,2.70
2018-01-20T08:12:31.428Z,2.70
2018-01-20T08:15:00.541Z,2.60
2018-01-20T08:17:29.712Z,2.70
2018-01-20T08:19:59.762Z,2.70
2018-01-20T08:22:28.954Z,2.70
2018-01-20T08:24:59.047Z,2.70
2018-01-20T08:27:28.149Z,2.70
2018-01-20T08:29:57.269Z,2.70
2018-01-20T08:32:26.511Z,2.70
2018-01-20T08:34:55.649Z,2.70
2018-01-20T08:37:24.753Z,2.70
2018-01-20T08:39:53.921Z,2.70
2018-01-20T08:42:23.030Z,2.70
2018-01-20T08:44:52.140Z,2.70
2018-01-20T08:47:21.319Z,2.70
2018-01-20T08:49:50.424Z,2.70
2018-01-20T08:52:19.805Z,2.70
2018-01-20T08:54:49.266Z,2.70
2018-01-20T08:57:18.453Z,2.60
2018-01-20T08:59:47.737Z,2.50
2018-01-20T09:02:17.062Z,2.60
2018-01-20T09:04:47.077Z,2.70
2018-01-20T09:07:16.373Z,2.70
2018-01-20T09:09:45.598Z,2.70
2018-01-20T09:12:15.540Z,2.80
2018-01-20T09:14:45.504Z,2.80
2018-01-20T09:17:14.736Z,2.80
2018-01-20T09:19:44.032Z,2.80
2018-01-20T09:22:13.339Z,2.80
2018-01-20T09:24:43.337Z,2.70
2018-01-20T09:27:12.493Z,2.70
2018-01-20T09:29:41.778Z,2.80
2018-01-20T09:32:11.215Z,2.80
2018-01-20T09:34:40.416Z,2.90
2018-01-20T09:37:09.894Z,2.90
2018-01-20T09:39:39.942Z,2.90
2018-01-20T09:42:09.334Z,2.90
2018-01-20T09:44:38.883Z,2.80
2018-01-20T09:47:08.490Z,2.90
2018-01-20T09:49:37.918Z,2.90
2018-01-20T09:52:07.189Z,2.90
2018-01-20T09:54:37.418Z,3.00
2018-01-20T09:57:06.969Z,3.00
2018-01-20T09:59:36.203Z,2.90
2018-01-20T10:02:05.580Z,2.90
2018-01-20T10:04:34.794Z,2.90
2018-01-20T10:07:04.789Z,2.80
2018-01-20T10:09:33.992Z,2.80
2018-01-20T10:12:03.128Z,2.90
2018-01-20T10:14:32.239Z,3.00
2018-01-20T10:17:01.731Z,3.00
2018-01-20T10:19:30.897Z,3.10
2018-01-20T10:22:01.069Z,3.10
2018-01-20T10:24:30.985Z,3.10
2018-01-20T10:27:00.099Z,3.10
2018-01-20T10:29:29.336Z,3.20
2018-01-20T10:31:58.549Z,3.20
2018-01-20T10:34:27.692Z,3.20
2018-01-20T10:36:56.983Z,3.20
2018-01-20T10:39:26.158Z,3.10
2018-01-20T10:41:55.482Z,3.10
2018-01-20T10:44:24.752Z,3.10
2018-01-20T10:46:54.188Z,3.20
2018-01-20T10:49:23.316Z,3.30
2018-01-20T10:51:52.555Z,3.30
2018-01-20T10:54:21.813Z,3.30
2018-01-20T10:56:50.941Z,3.40
2018-01-20T10:59:20.265Z,3.30
2018-01-20T11:01:49.716Z,3.20
2018-01-20T11:04:18.957Z,3.10
2018-01-20T11:06:48.268Z,3.10
2018-01-20T11:09:17.693Z,3.10
2018-01-20T11:11:47.027Z,3.10
2018-01-20T11:14:16.257Z,3.10
2018-01-20T11:16:46.349Z,3.30
2018-01-20T11:19:15.686Z,3.30
2018-01-20T11:21:44.904Z,3.30
2018-01-20T11:24:14.499Z,3.30
2018-01-20T11:26:43.782Z,3.20
2018-01-20T11:29:14.116Z,3.20
2018-01-20T11:31:43.459Z,3.20
2018-01-20T11:34:12.751Z,3.10
2018-01-20T11:36:41.954Z,3.10
2018-01-20T11:39:11.667Z,3.20
2018-01-20T11:41:41.165Z,3.20
2018-01-20T11:44:10.590Z,3.20
2018-01-20T11:46:40.145Z,3.30
2018-01-20T11:49:09.547Z,3.30
2018-01-20T11:51:38.967Z,3.20
2018-01-20T11:54:08.378Z,3.20
2018-01-20T11:56:37.723Z,3.10
2018-01-20T11:59:07.143Z,3.10
2018-01-20T12:01:36.358Z,3.10
2018-01-20T12:04:05.609Z,3.10
2018-01-20T12:06:34.849Z,3.10
2018-01-20T12:09:04.952Z,3.10
2018-01-20T12:11:34.166Z,3.10
2018-01-20T12:14:03.388Z,3.10
2018-01-20T12:16:33.357Z,3.20
2018-01-20T12:19:02.529Z,3.20
2018-01-20T12:21:32.492Z,3.20
2018-01-20T12:24:01.727Z,3.20
2018-01-20T12:26:31.196Z,3.20
2018-01-20T12:29:01.114Z,3.20
2018-01-20T12:31:31.222Z,3.30
2018-01-20T12:34:00.405Z,3.30
2018-01-20T12:36:30.389Z,3.30
2018-01-20T12:39:00.435Z,3.30
2018-01-20T12:41:29.909Z,3.30
2018-01-20T12:43:59.832Z,3.20
2018-01-20T12:46:29.163Z,3.20
2018-01-20T12:48:58.477Z,3.20
2018-01-20T12:51:28.005Z,3.30
2018-01-20T12:53:58.529Z,3.30
2018-01-20T12:56:28.688Z,3.30
2018-01-20T12:58:57.927Z,3.30
2018-01-20T13:01:27.521Z,3.30
2018-01-20T13:03:57.523Z,3.30
2018-01-20T13:06:26.746Z,3.30
2018-01-20T13:08:56.042Z,3.30
2018-01-20T13:11:25.798Z,3.40
2018-01-20T13:13:55.832Z,3.30
2018-01-20T13:16:25.914Z,3.30
2018-01-20T13:18:55.285Z,3.30
2018-01-20T13:21:24.497Z,3.30
2018-01-20T13:23:54.912Z,3.30
2018-01-20T13:26:24.007Z,3.30
2018-01-20T13:28:53.152Z,3.40
2018-01-20T13:31:22.536Z,3.40
2018-01-20T13:33:51.707Z,3.50
2018-01-20T13:36:20.908Z,3.50
2018-01-20T13:38:50.315Z,3.50
2018-01-20T13:41:19.608Z,3.50
2018-01-20T13:43:49.774Z,3.50
2018-01-20T13:46:19.360Z,3.50
2018-01-20T13:48:49.497Z,3.50
2018-01-20T13:51:19.718Z,3.50
2018-01-20T13:53:49.220Z,3.50
2018-01-20T13:56:18.444Z,3.50
2018-01-20T13:58:47.782Z,3.50
2018-01-20T14:01:17.255Z,3.50
2018-01-20T14:03:46.529Z,3.50
2018-01-20T14:06:15.786Z,3.50
2018-01-20T14:08:45.095Z,3.50
2018-01-20T14:11:14.400Z,3.50
2018-01-20T14:13:44.613Z,3.50
2018-01-20T14:16:15.477Z,3.40
2018-01-20T14:18:45.426Z,3.40
2018-01-20T14:21:14.644Z,3.50
2018-01-20T14:23:43.989Z,3.40
2018-01-20T14:26:13.906Z,3.50
2018-01-20T14:28:43.100Z,3.50
2018-01-20T14:31:13.594Z,3.50
2018-01-20T14:33:42.994Z,3.50
2018-01-20T14:36:12.169Z,3.50
2018-01-20T14:38:41.376Z,3.60
2018-01-20T14:41:10.626Z,3.50
2018-01-20T14:43:39.869Z,3.50
2018-01-20T14:46:09.429Z,3.50
2018-01-20T14:48:38.677Z,3.50
2018-01-20T14:51:07.869Z,3.50
2018-01-20T14:53:37.098Z,3.50
2018-01-20T14:56:06.295Z,3.50
2018-01-20T14:58:35.415Z,3.60
2018-01-20T15:01:04.578Z,3.60
2018-01-20T15:03:33.749Z,3.60
2018-01-20T15:06:02.877Z,3.70
2018-01-20T15:08:32.303Z,3.70
2018-01-20T15:11:01.679Z,3.70
2018-01-20T15:13:30.939Z,3.70
2018-01-20T15:16:00.605Z,3.70
2018-01-20T15:18:29.740Z,3.60
2018-01-20T15:20:58.868Z,3.60
2018-01-20T15:23:28.094Z,3.70
2018-01-20T15:25:57.290Z,3.70
2018-01-20T15:28:26.429Z,3.70
2018-01-20T15:30:56.388Z,3.60
2018-01-20T15:33:25.562Z,3.60
2018-01-20T15:35:55.652Z,3.50
2018-01-20T15:38:24.941Z,3.40
2018-01-20T15:40:54.078Z,3.40
2018-01-20T15:43:23.206Z,3.40
2018-01-20T15:45:52.481Z,3.40
2018-01-20T15:48:21.629Z,3.40
2018-01-20T15:50:51.097Z,3.40
2018-01-20T15:53:20.434Z,3.50
2018-01-20T15:55:50.300Z,3.50
2018-01-20T15:58:20.438Z,3.50
2018-01-20T16:00:50.062Z,3.50
2018-01-20T16:03:19.962Z,3.50
2018-01-20T16:05:49.220Z,3.40
2018-01-20T16:08:18.381Z,3.50
2018-01-20T16:10:47.620Z,3.50
2018-01-20T16:13:17.749Z,3.40
2018-01-20T16:15:47.203Z,3.40
2018-01-20T16:18:17.820Z,3.50
2018-01-20T16:20:47.973Z,3.50
2018-01-20T16:23:17.178Z,3.50
2018-01-20T16:25:47.724Z,3.40
2018-01-20T16:28:17.189Z,3.40
2018-01-20T16:30:46.538Z,3.40
2018-01-20T16:33:15.821Z,3.40
2018-01-20T16:35:45.153Z,3.40
2018-01-20T16:38:14.523Z,3.40
2018-01-20T16:40:43.882Z,3.40
2018-01-20T16:43:13.372Z,3.40
2018-01-20T16:45:43.555Z,3.30
2018-01-20T16:48:12.948Z,3.20
2018-01-20T16:50:43.033Z,3.20
2018-01-20T16:53:12.449Z,3.20
2018-01-20T16:55:43.797Z,3.20
2018-01-20T16:58:13.388Z,3.20
2018-01-20T17:00:43.610Z,3.30
2018-01-20T17:03:13.144Z,3.30
2018-01-20T17:05:42.438Z,3.30
2018-01-20T17:08:12.038Z,3.30
2018-01-20T17:10:41.377Z,3.40
2018-01-20T17:13:11.457Z,3.30
2018-01-20T17:15:40.975Z,3.30
2018-01-20T17:18:10.843Z,3.30
2018-01-20T17:20:40.005Z,3.20
2018-01-20T17:23:09.371Z,3.20
2018-01-20T17:25:38.734Z,3.20
2018-01-20T17:28:07.975Z,3.20
2018-01-20T17:30:37.316Z,3.20
2018-01-20T17:33:07.365Z,3.00
2018-01-20T17:35:37.445Z,3.00
2018-01-20T17:38:06.687Z,3.00
2018-01-20T17:40:36.726Z,3.00
2018-01-20T17:43:06.777Z,3.00
2018-01-20T17:45:37.027Z,3.00
2018-01-20T17:48:06.200Z,3.00
2018-01-20T17:50:36.622Z,3.00
2018-01-20T17:53:07.198Z,3.00
2018-01-20T17:55:36.424Z,3.00
2018-01-20T17:58:05.741Z,3.10
2018-01-20T18:00:34.941Z,3.10
2018-01-20T18:03:05.060Z,3.10
2018-01-20T18:05:38.945Z,3.10
2018-01-20T18:08:08.440Z,3.10
2018-01-20T18:10:37.638Z,3.20
2018-01-20T18:13:06.917Z,3.20
2018-01-20T18:15:37.076Z,3.10
2018-01-20T18:18:06.237Z,3.10
2018-01-20T18:20:35.433Z,3.10
2018-01-20T18:23:04.987Z,3.00
2018-01-20T18:25:34.249Z,3.00
2018-01-20T18:28:03.492Z,3.00
2018-01-20T18:30:32.934Z,3.10
2018-01-20T18:33:02.115Z,3.10
2018-01-20T18:35:31.360Z,3.10
2018-01-20T18:38:00.546Z,3.10
2018-01-20T18:40:30.518Z,3.20
2018-01-20T18:43:00.486Z,3.10
2018-01-20T18:45:29.656Z,3.10
2018-01-20T18:47:59.574Z,3.20
2018-01-20T18:50:29.540Z,3.10
2018-01-20T18:52:58.678Z,3.10
2018-01-20T18:55:27.864Z,3.10
2018-01-20T18:57:57.012Z,3.10
2018-01-20T19:00:26.169Z,3.00
2018-01-20T19:02:55.370Z,3.00
2018-01-20T19:05:25.250Z,3.10
2018-01-20T19:07:54.405Z,3.00
2018-01-20T19:10:24.276Z,3.00
2018-01-20T19:12:53.414Z,3.00
2018-01-20T19:15:22.598Z,3.10
2018-01-20T19:17:51.717Z,3.10
2018-01-20T19:20:20.859Z,3.20
2018-01-20T19:22:50.778Z,3.30
2018-01-20T19:25:20.287Z,3.20
2018-01-20T19:27:49.516Z,3.30
2018-01-20T19:30:18.859Z,3.30
2018-01-20T19:32:48.039Z,3.30
2018-01-20T19:35:18.019Z,3.30
2018-01-20T19:37:47.264Z,3.30
2018-01-20T19:40:16.546Z,3.30
2018-01-20T19:42:45.735Z,3.30
2018-01-20T19:45:14.996Z,3.40
2018-01-20T19:47:44.981Z,3.40
2018-01-20T19:50:14.212Z,3.40
2018-01-20T19:52:43.563Z,3.30
2018-01-20T19:55:13.707Z,3.40
2018-01-20T19:57:43.772Z,3.30
2018-01-20T20:00:13.348Z,3.30
2018-01-20T20:02:47.943Z,3.30
2018-01-20T20:05:17.365Z,3.20
2018-01-20T20:07:49.692Z,3.20
2018-01-20T20:10:21.764Z,3.20
2018-01-20T20:12:51.625Z,3.20
2018-01-20T20:15:21.592Z,3.20
2018-01-20T20:17:50.923Z,3.20
2018-01-20T20:20:27.348Z,3.20
2018-01-20T20:22:57.336Z,3.10
2018-01-20T20:25:28.017Z,3.10
2018-01-20T20:28:00.414Z,3.10
2018-01-20T20:30:30.725Z,3.10
2018-01-20T20:33:05.619Z,3.20
2018-01-20T20:35:35.886Z,3.30
2018-01-20T20:38:09.702Z,3.30
2018-01-20T20:40:42.277Z,3.40
2018-01-20T20:43:12.761Z,3.30
2018-01-20T20:45:46.698Z,3.30
2018-01-20T20:48:16.192Z,3.30
2018-01-20T20:50:47.389Z,3.30
2018-01-20T20:53:16.915Z,3.30
2018-01-20T20:55:46.107Z,3.30
2018-01-20T20:58:16.357Z,3.40
2018-01-20T21:00:45.525Z,3.40
2018-01-20T21:03:14.969Z,3.40
2018-01-20T21:05:44.209Z,3.30
2018-01-20T21:08:14.615Z,3.30
2018-01-20T21:10:44.137Z,3.30
2018-01-20T21:13:16.024Z,3.30
2018-01-20T21:15:45.398Z,3.30
2018-01-20T21:18:14.569Z,3.40
2018-01-20T21:20:44.434Z,3.30
2018-01-20T21:23:13.978Z,3.40
2018-01-20T21:25:45.699Z,3.30
2018-01-20T21:28:15.709Z,3.30
2018-01-20T21:30:45.122Z,3.20
2018-01-20T21:33:15.210Z,3.20
2018-01-20T21:35:45.277Z,3.20
2018-01-20T21:38:14.454Z,3.30
2018-01-20T21:40:43.654Z,3.30
2018-01-20T21:43:13.001Z,3.30
2018-01-20T21:45:43.035Z,3.30
2018-01-20T21:48:12.291Z,3.30
2018-01-20T21:50:47.115Z,3.30
2018-01-20T21:53:16.992Z,3.30
2018-01-20T21:55:46.333Z,3.30
2018-01-20T21:58:15.930Z,3.30
2018-01-20T22:00:45.574Z,3.30
2018-01-20T22:03:14.860Z,3.30
2018-01-20T22:05:44.145Z,3.30
2018-01-20T22:08:13.329Z,3.30
2018-01-20T22:10:42.500Z,3.40
2018-01-20T22:13:11.809Z,3.40
2018-01-20T22:15:41.067Z,3.30
2018-01-20T22:18:10.263Z,3.30
2018-01-20T22:20:41.036Z,3.20
2018-01-20T22:23:11.013Z,3.20
2018-01-20T22:25:44.244Z,3.20
2018-01-20T22:28:13.486Z,3.30
2018-01-20T22:30:42.683Z,3.30
2018-01-20T22:33:12.065Z,3.40
2018-01-20T22:35:41.225Z,3.40
2018-01-20T22:38:10.396Z,3.40
2018-01-20T22:40:39.772Z,3.50
2018-01-20T22:43:09.001Z,3.40
2018-01-20T22:45:38.180Z,3.40
2018-01-20T22:48:07.417Z,3.40
2018-01-20T22:50:36.583Z,3.40
2018-01-20T22:53:06.566Z,3.30
2018-01-20T22:55:36.004Z,3.30
2018-01-20T22:58:05.163Z,3.20
2018-01-20T23:00:34.604Z,3.20
2018-01-20T23:03:04.950Z,3.30
2018-01-20T23:05:34.233Z,3.30
2018-01-20T23:08:03.395Z,3.30
2018-01-20T23:10:32.581Z,3.20
2018-01-20T23:13:01.780Z,3.20
2018-01-20T23:15:32.189Z,3.20
2018-01-20T23:18:02.354Z,3.20
2018-01-20T23:20:34.116Z,3.20
2018-01-20T23:23:03.367Z,3.20
2018-01-20T23:25:32.505Z,3.20
2018-01-20T23:28:01.667Z,3.30
2018-01-20T23:30:31.725Z,3.30
2018-01-20T23:33:00.870Z,3.30
2018-01-20T23:35:30.095Z,3.30
2018-01-20T23:38:00.008Z,3.30
2018-01-20T23:40:30.135Z,3.30
2018-01-20T23:42:59.370Z,3.30
2018-01-20T23:45:28.519Z,3.30
2018-01-20T23:47:57.635Z,3.40
2018-01-20T23:50:26.822Z,3.40
2018-01-20T23:52:56.166Z,3.40
2018-01-20T23:55:25.295Z,3.30
2018-01-20T23:57:54.411Z,3.20
